createdAt,value
2022-08-29T00:03:05.174Z,40.53
2022-08-29T00:07:56.969Z,40.93
2022-08-29T00:12:49.309Z,40.94
2022-08-29T00:17:41.668Z,40.77
2022-08-29T00:22:34.251Z,40.75
2022-08-29T00:27:26.678Z,40.81
2022-08-29T00:32:19.342Z,40.53
2022-08-29T00:37:11.974Z,40.63
2022-08-29T00:42:04.714Z,40.65
2022-08-29T00:46:57.207Z,40.62
2022-08-29T00:51:49.784Z,40.45
2022-08-29T00:56:42.325Z,40.34
2022-08-29T01:01:35.223Z,40.25
2022-08-29T01:06:27.366Z,40.33
2022-08-29T01:11:19.747Z,40.34
2022-08-29T01:16:12.307Z,40.29
2022-08-29T01:21:04.635Z,40.1
2022-08-29T01:25:57.261Z,39.99
2022-08-29T01:30:49.774Z,40.24
2022-08-29T01:35:42.203Z,40.08
2022-08-29T01:40:34.983Z,40.18
2022-08-29T01:45:27.737Z,39.75
2022-08-29T01:50:20.428Z,39.84
2022-08-29T01:55:13.111Z,39.57
2022-08-29T02:00:05.766Z,39.77
2022-08-29T02:04:58.277Z,39.92
2022-08-29T02:09:50.350Z,39.81
2022-08-29T02:14:42.761Z,40.01
2022-08-29T02:19:35.683Z,39.56
2022-08-29T02:24:27.674Z,39.91
2022-08-29T02:29:20.038Z,39.99
2022-08-29T02:34:12.536Z,39.89
2022-08-29T02:39:04.914Z,39.98
2022-08-29T02:43:57.737Z,39.76
2022-08-29T02:48:54.084Z,39.81
2022-08-29T02:53:42.676Z,39.87
2022-08-29T02:58:35.226Z,39.79
2022-08-29T03:03:27.538Z,39.96
2022-08-29T03:08:20.159Z,39.89
2022-08-29T03:13:12.796Z,39.76
2022-08-29T03:18:05.220Z,39.74
2022-08-29T03:22:57.928Z,39.89
2022-08-29T03:27:50.518Z,39.69
2022-08-29T03:32:42.944Z,39.62
2022-08-29T03:37:35.353Z,39.58
2022-08-29T03:42:28.020Z,39.32
2022-08-29T03:47:20.348Z,39.61
2022-08-29T03:52:12.945Z,39.62
2022-08-29T03:57:05.466Z,39.41
2022-08-29T04:01:57.899Z,39.3
2022-08-29T04:06:50.129Z,39.75
2022-08-29T04:11:42.419Z,39.66
2022-08-29T04:16:34.833Z,39.66
2022-08-29T04:21:27.554Z,39.4
2022-08-29T04:26:36.261Z,39.59
2022-08-29T04:31:12.709Z,39.54
2022-08-29T04:36:05.170Z,39.58
2022-08-29T04:40:57.699Z,39.69
2022-08-29T04:45:50.757Z,39.37
2022-08-29T04:50:43.158Z,39.55
2022-08-29T04:55:35.550Z,39.5
2022-08-29T05:00:28.004Z,38.92
2022-08-29T05:05:20.337Z,39.69
2022-08-29T05:10:12.907Z,40.06
2022-08-29T05:15:05.605Z,42.69
2022-08-29T05:19:57.904Z,40.19
2022-08-29T05:24:49.958Z,40.17
2022-08-29T05:29:41.820Z,40.96
2022-08-29T05:34:35.237Z,40.84
2022-08-29T05:39:26.387Z,40.18
2022-08-29T05:44:19.049Z,40.13
2022-08-29T05:49:11.372Z,41.69
2022-08-29T05:54:04.398Z,41.29
2022-08-29T05:58:57.048Z,41.21
2022-08-29T06:03:49.880Z,41.26
2022-08-29T06:08:42.516Z,41.47
2022-08-29T06:13:35.010Z,41.55
2022-08-29T06:18:29.695Z,41.64
2022-08-29T06:23:20.118Z,41.76
2022-08-29T06:28:14.291Z,41.81
2022-08-29T06:33:05.279Z,41.92
2022-08-29T06:37:57.500Z,42.01
2022-08-29T06:42:50.054Z,42.12
2022-08-29T06:47:42.713Z,42.09
2022-08-29T06:52:35.670Z,42.21
2022-08-29T06:57:27.919Z,42.35
2022-08-29T07:02:20.666Z,42.52
2022-08-29T07:07:15.364Z,42.03
2022-08-29T07:12:07.740Z,42.39
2022-08-29T07:17:00.330Z,42.66
2022-08-29T07:21:53.105Z,41.78
2022-08-29T07:26:45.558Z,41.69
2022-08-29T07:31:38.158Z,41.78
2022-08-29T07:36:31.222Z,41.73
2022-08-29T07:41:24.080Z,42.08
2022-08-29T07:46:16.913Z,42.13
2022-08-29T07:51:10.566Z,42.01
2022-08-29T07:56:02.730Z,42.12
2022-08-29T08:00:55.545Z,42.17
2022-08-29T08:05:47.989Z,42.22
2022-08-29T08:10:41.129Z,41.92
2022-08-29T08:15:33.879Z,42.2
2022-08-29T08:20:26.429Z,42.07
2022-08-29T08:25:19.128Z,41.91
2022-08-29T08:30:11.900Z,42.08
2022-08-29T08:35:04.414Z,41.77
2022-08-29T08:39:56.963Z,41.45
2022-08-29T08:44:49.682Z,40.98
2022-08-29T08:49:42.478Z,41.15
2022-08-29T08:54:34.939Z,40.88
2022-08-29T08:59:27.473Z,41.16
2022-08-29T09:04:20.025Z,41.15
2022-08-29T09:09:12.749Z,41.11
2022-08-29T09:14:05.247Z,40.98
2022-08-29T09:18:57.812Z,41.01
2022-08-29T09:23:50.463Z,40.85
2022-08-29T09:28:43.111Z,40.41
2022-08-29T09:33:35.705Z,40.74
2022-08-29T09:38:28.306Z,40.49
2022-08-29T09:43:20.907Z,40.28
2022-08-29T09:48:13.493Z,40.17
2022-08-29T09:53:14.282Z,39.75
2022-08-29T09:57:58.704Z,39.37
2022-08-29T10:02:51.281Z,39.33
2022-08-29T10:07:43.954Z,39.19
2022-08-29T10:12:36.546Z,39.46
2022-08-29T10:17:28.713Z,39.64
2022-08-29T10:27:13.887Z,39.56
2022-08-29T10:32:06.363Z,39.33
2022-08-29T10:36:58.912Z,39.23
2022-08-29T10:41:51.633Z,39.05
2022-08-29T10:51:36.492Z,39.1
2022-08-29T10:56:28.788Z,39.18
2022-08-29T11:01:21.373Z,39.31
2022-08-29T11:06:14.214Z,39.03
2022-08-29T11:11:06.868Z,39.61
2022-08-29T11:15:59.670Z,39.84
2022-08-29T11:20:52.530Z,39.93
2022-08-29T11:25:45.207Z,39.75
2022-08-29T11:30:40.413Z,39.73
2022-08-29T11:35:29.653Z,39.98
2022-08-29T11:40:47.049Z,40.25
2022-08-29T11:45:14.926Z,39.93
2022-08-29T11:50:07.300Z,39.06
2022-08-29T11:54:59.894Z,39.32
2022-08-29T11:59:52.780Z,39.91
2022-08-29T12:04:45.494Z,39.97
2022-08-29T12:09:38.144Z,39.76
2022-08-29T12:14:33.220Z,39.57
2022-08-29T12:19:23.363Z,39.87
2022-08-29T12:24:15.984Z,39.83
2022-08-29T12:29:10.320Z,39.64
2022-08-29T12:34:01.256Z,39.48
2022-08-29T12:38:54.160Z,39.46
2022-08-29T12:43:46.976Z,39
2022-08-29T12:48:39.505Z,38.53
2022-08-29T12:53:32.185Z,38.52
2022-08-29T12:58:24.777Z,38.9
2022-08-29T13:03:17.458Z,39.35
2022-08-29T13:08:12.434Z,39.23
2022-08-29T13:13:02.439Z,39.03
2022-08-29T13:17:55.153Z,38.75
2022-08-29T13:22:47.781Z,38.68
2022-08-29T13:27:40.657Z,38.36
2022-08-29T13:32:33.718Z,38.42
2022-08-29T13:37:26.334Z,38.5
2022-08-29T13:42:18.934Z,38.87
2022-08-29T13:47:11.551Z,38.95
2022-08-29T13:52:06.270Z,38.67
2022-08-29T13:56:58.631Z,39.27
2022-08-29T14:02:17.957Z,39.1
2022-08-29T14:06:43.788Z,39
2022-08-29T14:11:36.699Z,38.51
2022-08-29T14:16:29.461Z,38.48
2022-08-29T14:21:22.029Z,39.18
2022-08-29T14:26:14.733Z,39.02
2022-08-29T14:31:07.577Z,38.66
2022-08-29T14:36:00.136Z,38.63
2022-08-29T14:40:52.762Z,38.93
2022-08-29T14:45:45.495Z,39.04
2022-08-29T14:50:37.994Z,38.75
2022-08-29T14:55:30.672Z,42.76
2022-08-29T15:00:23.212Z,41.03
2022-08-29T15:05:15.907Z,40.2
2022-08-29T15:10:08.333Z,38.5
2022-08-29T15:15:00.693Z,38.37
2022-08-29T15:20:33.907Z,37.92
2022-08-29T15:24:46.169Z,39.48
2022-08-29T15:29:38.763Z,37.87
2022-08-29T15:34:31.632Z,37.31
2022-08-29T15:39:24.483Z,37.43
2022-08-29T15:44:16.963Z,36.26
2022-08-29T15:49:09.517Z,36.61
2022-08-29T15:54:02.366Z,37.03
2022-08-29T15:58:54.811Z,37.04
2022-08-29T16:03:47.470Z,37.41
2022-08-29T16:08:39.959Z,37.58
2022-08-29T16:13:32.922Z,35.99
2022-08-29T16:18:25.062Z,36.04
2022-08-29T16:23:17.879Z,35.64
2022-08-29T16:28:10.410Z,36.91
2022-08-29T16:33:03.251Z,34.64
2022-08-29T16:38:02.343Z,33.69
2022-08-29T16:42:55.566Z,35.9
2022-08-29T16:47:40.952Z,34.31
2022-08-29T16:52:33.425Z,36.21
2022-08-29T16:57:25.976Z,36.16
2022-08-29T17:02:18.659Z,34.64
2022-08-29T17:07:11.303Z,34.27
2022-08-29T17:12:03.731Z,34.62
2022-08-29T17:16:56.036Z,34.93
2022-08-29T17:21:49.120Z,35.13
2022-08-29T17:26:41.872Z,36.03
2022-08-29T17:31:38.360Z,35.74
2022-08-29T17:36:26.945Z,35.74
2022-08-29T17:41:19.437Z,36.57
2022-08-29T17:46:12.115Z,35.99
2022-08-29T17:51:04.121Z,36.05
2022-08-29T17:55:56.472Z,35.82
2022-08-29T18:00:49.131Z,36.23
2022-08-29T18:05:44.256Z,36.65
2022-08-29T18:10:36.336Z,36.26
2022-08-29T18:15:29.190Z,36.39
2022-08-29T18:20:21.966Z,37.17
2022-08-29T18:25:14.383Z,36.6
2022-08-29T18:30:06.942Z,36.7
2022-08-29T18:35:00.884Z,36.85
2022-08-29T18:39:51.622Z,37.12
2022-08-29T18:44:44.142Z,37.34
2022-08-29T18:49:36.723Z,37.08
2022-08-29T18:54:28.819Z,37.12
2022-08-29T18:59:21.260Z,37.27
2022-08-29T19:04:13.903Z,37.28
2022-08-29T19:09:06.339Z,37.31
2022-08-29T19:13:58.921Z,37.43
2022-08-29T19:18:51.337Z,37.53
2022-08-29T19:23:43.572Z,37.8
2022-08-29T19:28:36.232Z,37.63
2022-08-29T19:33:28.804Z,37.74
2022-08-29T19:38:21.591Z,37.82
2022-08-29T19:43:14.533Z,37.99
2022-08-29T19:48:07.054Z,38.12
2022-08-29T19:53:00.046Z,38.24
2022-08-29T19:57:52.834Z,38.32
2022-08-29T20:02:45.879Z,38.48
2022-08-29T20:07:37.659Z,38.83
2022-08-29T20:12:30.334Z,38.51
2022-08-29T20:17:23.109Z,38.65
2022-08-29T20:22:15.710Z,38.56
2022-08-29T20:27:08.409Z,38.96
2022-08-29T20:32:01.218Z,38.79
2022-08-29T20:36:53.701Z,38.97
2022-08-29T20:41:46.227Z,38.83
2022-08-29T20:46:39.014Z,38.88
2022-08-29T20:51:31.415Z,39.05
2022-08-29T20:56:23.981Z,39
2022-08-29T21:01:16.743Z,38.95
2022-08-29T21:06:09.207Z,39.13
2022-08-29T21:11:01.999Z,39.32
2022-08-29T21:15:54.635Z,39.23
2022-08-29T21:20:53.668Z,39.28
2022-08-29T21:25:39.723Z,38.93
2022-08-29T21:30:32.472Z,39.18
2022-08-29T21:35:24.900Z,39.36
2022-08-29T21:40:17.588Z,39.49
2022-08-29T21:45:10.208Z,39.27
2022-08-29T21:50:02.616Z,39.28
2022-08-29T21:54:55.154Z,39.48
2022-08-29T21:59:47.475Z,39.49
2022-08-29T22:04:39.993Z,39.42
2022-08-29T22:09:32.572Z,39.46
2022-08-29T22:14:25.077Z,39.38
2022-08-29T22:19:17.548Z,39.49
2022-08-29T22:24:09.914Z,39.44
2022-08-29T22:29:02.416Z,39.51
2022-08-29T22:33:55.080Z,39.17
2022-08-29T22:38:47.705Z,39.53
2022-08-29T22:43:40.427Z,39.55
2022-08-29T22:48:32.678Z,39.54
2022-08-29T22:53:25.200Z,39.61
2022-08-29T22:58:17.706Z,39.56
2022-08-29T23:03:10.243Z,39.64
2022-08-29T23:08:02.631Z,39.6
2022-08-29T23:12:55.126Z,39.61
2022-08-29T23:17:47.817Z,39.69
2022-08-29T23:22:41.028Z,39.61
2022-08-29T23:27:32.867Z,39.74
2022-08-29T23:32:25.315Z,39.76
2022-08-29T23:37:17.986Z,39.69
2022-08-29T23:42:10.488Z,39.76
2022-08-29T23:47:02.987Z,39.74
2022-08-29T23:51:55.451Z,39.58
2022-08-29T23:56:48.009Z,39.72
